Time;durP1;ratioP1;P1;durP2;ratioP2;P2;SDS_P1;SDS_P2;PMS_P1;PMS_P2;Temp;Humidity;BMP_temperature;BMP_pressure;BME280_temperature;BME280_humidity;BME280_pressure;Samples;Min_cycle;Max_cycle;Signal;HPM_P1;HPM_P2
2023/04/30 00:00:09;;;;;;;11.77;10.57;;;;;;;11.62;100.00;100565.03;5062494;28;20234;-66
2023/04/30 00:02:35;;;;;;;15.73;10.87;;;;;;;11.74;100.00;100558.44;5078690;28;20180;-67
2023/04/30 00:05:00;;;;;;;12.03;10.87;;;;;;;11.81;100.00;100561.50;5077033;28;20181;-66
2023/04/30 00:07:25;;;;;;;12.80;11.37;;;;;;;11.82;100.00;100563.19;5071057;28;20189;-67
2023/04/30 00:09:51;;;;;;;11.33;10.20;;;;;;;11.69;100.00;100563.00;5070712;28;20242;-68
2023/04/30 00:12:16;;;;;;;11.87;10.60;;;;;;;11.73;100.00;100556.75;5059711;28;20258;-67
2023/04/30 00:14:41;;;;;;;10.83;9.83;;;;;;;11.70;100.00;100564.66;5065734;28;20200;-67
2023/04/30 00:17:06;;;;;;;12.03;10.90;;;;;;;11.73;100.00;100564.50;5072348;28;20176;-68
2023/04/30 00:19:32;;;;;;;11.97;10.77;;;;;;;11.51;100.00;100562.19;5091624;28;20184;-67
2023/04/30 00:22:00;;;;;;;11.43;10.33;;;;;;;11.59;100.00;100567.78;5079025;28;20212;-66
2023/04/30 00:24:25;;;;;;;10.97;9.97;;;;;;;11.58;100.00;100563.53;5072057;28;20635;-70
2023/04/30 00:26:50;;;;;;;11.03;10.10;;;;;;;11.56;100.00;100568.78;5071618;28;20245;-67
2023/04/30 00:29:16;;;;;;;11.80;10.70;;;;;;;11.43;100.00;100562.59;5071966;28;20521;-66
2023/04/30 00:31:41;;;;;;;11.97;10.77;;;;;;;11.44;100.00;100559.91;5074421;28;20222;-66
2023/04/30 00:34:06;;;;;;;11.20;10.20;;;;;;;11.53;100.00;100562.94;5074417;28;20287;-66
2023/04/30 00:36:32;;;;;;;11.30;10.20;;;;;;;11.55;100.00;100567.09;5071198;28;20537;-67
2023/04/30 00:38:57;;;;;;;11.80;10.80;;;;;;;11.66;100.00;100568.28;5071674;28;20184;-66
2023/04/30 00:41:24;;;;;;;10.97;9.97;;;;;;;11.66;100.00;100564.00;5063175;28;20272;-66
2023/04/30 00:43:49;;;;;;;11.93;10.00;;;;;;;11.65;100.00;100564.03;5070655;28;20210;-68
2023/04/30 00:46:15;;;;;;;15.00;11.27;;;;;;;11.60;100.00;100572.03;5071014;28;20201;-68
2023/04/30 00:48:40;;;;;;;12.33;11.33;;;;;;;11.63;100.00;100564.97;5071940;28;20294;-66
2023/04/30 00:51:05;;;;;;;11.50;10.40;;;;;;;11.63;100.00;100571.88;5069830;28;20272;-66
2023/04/30 00:53:31;;;;;;;12.13;11.03;;;;;;;11.64;100.00;100568.38;5066972;28;20250;-67
2023/04/30 00:55:56;;;;;;;12.23;10.87;;;;;;;11.63;100.00;100577.88;5082948;28;20603;-66
2023/04/30 00:58:22;;;;;;;11.37;10.27;;;;;;;11.51;100.00;100577.63;5080136;28;20173;-67
2023/04/30 01:00:48;;;;;;;12.07;10.83;;;;;;;11.50;100.00;100574.25;5079912;28;20360;-67
2023/04/30 01:03:15;;;;;;;12.87;11.63;;;;;;;11.50;100.00;100573.41;5072460;28;20173;-67
2023/04/30 01:05:40;;;;;;;12.93;11.50;;;;;;;11.46;100.00;100572.72;5071280;28;20614;-69
2023/04/30 01:08:07;;;;;;;13.07;11.83;;;;;;;11.49;100.00;100574.31;5070882;28;20293;-67
2023/04/30 01:10:44;;;;;;;12.73;11.53;;;;;;;11.42;100.00;100569.50;5065099;28;20380;-67
2023/04/30 01:13:30;;;;;;;13.30;11.97;;;;;;;11.28;100.00;100569.34;5070110;28;20275;-69
2023/04/30 01:16:05;;;;;;;14.87;12.67;;;;;;;11.32;100.00;100570.84;5086632;28;20537;-67
2023/04/30 01:18:38;;;;;;;12.83;11.53;;;;;;;11.27;100.00;100560.75;5076916;28;20176;-67
2023/04/30 01:21:05;;;;;;;14.40;12.83;;;;;;;11.31;100.00;100569.16;5069751;28;20223;-65
2023/04/30 01:23:46;;;;;;;13.17;11.87;;;;;;;11.23;100.00;100564.41;5073547;28;20192;-68
2023/04/30 01:26:49;;;;;;;13.90;12.67;;;;;;;11.21;100.00;100555.94;5075715;28;20587;-68
2023/04/30 01:29:17;;;;;;;14.57;13.07;;;;;;;11.16;100.00;100565.63;5078098;28;20180;-66
2023/04/30 01:31:43;;;;;;;15.33;12.20;;;;;;;10.96;100.00;100557.16;5069516;28;20223;-66
2023/04/30 01:34:08;;;;;;;15.33;13.93;;;;;;;10.98;100.00;100559.66;5080023;28;20288;-67
2023/04/30 01:37:06;;;;;;;13.43;12.03;;;;;;;10.92;100.00;100555.63;5077381;28;20272;-66
2023/04/30 01:39:48;;;;;;;14.00;12.60;;;;;;;10.88;100.00;100553.25;5072131;28;20191;-66
2023/04/30 01:42:21;;;;;;;13.63;12.23;;;;;;;10.77;100.00;100556.38;5071798;28;20603;-65
2023/04/30 01:45:24;;;;;;;14.70;12.00;;;;;;;10.85;100.00;100556.81;5085078;28;20207;-65
2023/04/30 01:48:26;;;;;;;14.03;12.73;;;;;;;10.80;100.00;100556.22;5086216;28;20313;-67
2023/04/30 01:51:15;;;;;;;12.83;11.50;;;;;;;10.86;100.00;100560.25;5060056;28;20230;-67
2023/04/30 01:53:43;;;;;;;15.80;13.33;;;;;;;11.01;100.00;100563.81;5076285;28;20192;-67
2023/04/30 01:56:11;;;;;;;14.07;12.63;;;;;;;10.91;100.00;100566.81;5083384;28;20202;-68
2023/04/30 01:58:37;;;;;;;15.23;13.63;;;;;;;10.81;100.00;100570.75;5082599;28;20191;-67
2023/04/30 02:01:02;;;;;;;14.50;13.03;;;;;;;10.71;100.00;100577.25;5075460;28;20215;-67
2023/04/30 02:03:28;;;;;;;14.60;13.10;;;;;;;10.58;100.00;100576.97;5085383;28;20543;-66
2023/04/30 02:05:54;;;;;;;13.87;12.60;;;;;;;10.57;100.00;100580.47;5077206;28;20262;-67
2023/04/30 02:08:19;;;;;;;14.87;13.33;;;;;;;10.59;100.00;100578.66;5076947;28;20272;-66
2023/04/30 02:10:44;;;;;;;14.93;13.47;;;;;;;10.63;100.00;100581.00;5085301;28;20646;-64
2023/04/30 02:13:10;;;;;;;15.33;13.83;;;;;;;10.75;100.00;100578.78;5079020;28;20524;-67
2023/04/30 02:15:35;;;;;;;16.20;13.13;;;;;;;10.69;100.00;100581.63;5074506;28;20180;-66
2023/04/30 02:18:00;;;;;;;14.73;13.20;;;;;;;10.63;100.00;100582.75;5077391;28;20259;-67
2023/04/30 02:20:25;;;;;;;14.80;13.40;;;;;;;10.56;100.00;100578.81;5070250;28;20285;-67
2023/04/30 02:22:51;;;;;;;14.50;13.20;;;;;;;10.47;100.00;100580.06;5089866;28;20176;-67
2023/04/30 02:25:17;;;;;;;14.80;13.17;;;;;;;10.46;100.00;100588.69;5076812;28;20203;-67
2023/04/30 02:27:42;;;;;;;14.20;12.90;;;;;;;10.40;100.00;100579.50;5074939;28;20271;-66
2023/04/30 02:30:07;;;;;;;15.37;13.40;;;;;;;10.38;100.00;100576.19;5064159;28;20627;-66
2023/04/30 02:32:33;;;;;;;15.87;14.37;;;;;;;10.37;100.00;100574.53;5082496;28;20176;-65
2023/04/30 02:34:58;;;;;;;13.13;11.90;;;;;;;10.39;100.00;100571.88;5076808;28;20266;-65
2023/04/30 02:37:23;;;;;;;14.60;13.13;;;;;;;10.32;100.00;100572.13;5074206;28;20238;-65
2023/04/30 02:39:51;;;;;;;14.97;13.40;;;;;;;10.29;100.00;100579.97;5074029;28;20180;-65
2023/04/30 02:42:16;;;;;;;14.07;12.67;;;;;;;10.28;100.00;100568.03;5062424;28;20239;-66
2023/04/30 02:44:41;;;;;;;14.83;13.23;;;;;;;10.33;100.00;100570.38;5072113;28;20181;-66
2023/04/30 02:47:06;;;;;;;15.20;13.77;;;;;;;10.44;100.00;100578.47;5074050;28;20612;-66
2023/04/30 02:49:32;;;;;;;15.07;13.50;;;;;;;10.36;100.00;100587.41;5073945;28;20177;-66
2023/04/30 02:51:57;;;;;;;14.60;12.83;;;;;;;10.36;100.00;100585.72;5061871;28;20216;-66
2023/04/30 02:54:23;;;;;;;15.20;13.70;;;;;;;10.54;100.00;100580.63;5070108;28;20242;-66
2023/04/30 02:56:48;;;;;;;16.17;14.50;;;;;;;10.69;100.00;100579.88;5086664;28;20534;-66
2023/04/30 02:59:13;;;;;;;14.73;13.23;;;;;;;10.47;100.00;100586.03;5073880;28;20215;-66
2023/04/30 03:01:39;;;;;;;14.27;12.87;;;;;;;10.45;100.00;100582.69;5065448;28;20586;-65
2023/04/30 03:04:05;;;;;;;14.43;13.03;;;;;;;10.42;100.00;100582.00;5081816;28;20234;-67
2023/04/30 03:06:31;;;;;;;14.83;13.20;;;;;;;10.32;100.00;100587.56;5073273;28;20211;-68
2023/04/30 03:08:57;;;;;;;12.97;11.67;;;;;;;10.38;100.00;100585.63;5071993;28;20220;-66
2023/04/30 03:11:22;;;;;;;13.80;12.60;;;;;;;10.46;100.00;100592.09;5061875;28;20251;-66
2023/04/30 03:13:50;;;;;;;16.17;12.07;;;;;;;10.39;100.00;100588.13;5065466;28;20662;-66
2023/04/30 03:16:17;;;;;;;13.80;12.43;;;;;;;10.39;100.00;100584.72;5064621;28;20231;-66
2023/04/30 03:18:42;;;;;;;15.43;13.33;;;;;;;10.49;100.00;100585.97;5065544;28;20535;-66
2023/04/30 03:21:08;;;;;;;16.10;12.90;;;;;;;10.44;100.00;100581.06;5071603;28;20242;-66
2023/04/30 03:23:33;;;;;;;14.80;13.13;;;;;;;10.40;100.00;100576.94;5081221;28;20180;-66
2023/04/30 03:25:58;;;;;;;14.43;12.93;;;;;;;10.30;100.00;100578.25;5078459;28;20775;-70
2023/04/30 03:28:24;;;;;;;13.50;12.17;;;;;;;10.20;100.00;100580.41;5091480;28;20180;-66
2023/04/30 03:30:49;;;;;;;14.87;13.37;;;;;;;10.14;100.00;100583.25;5045065;28;20221;-66
2023/04/30 03:33:14;;;;;;;14.30;12.90;;;;;;;10.21;100.00;100581.22;5072294;28;20184;-66
2023/04/30 03:35:40;;;;;;;15.30;13.73;;;;;;;10.21;100.00;100583.78;5072530;28;20219;-67
2023/04/30 03:38:05;;;;;;;14.50;13.10;;;;;;;10.15;100.00;100582.34;5072551;28;20690;-67
2023/04/30 03:40:30;;;;;;;15.37;13.87;;;;;;;10.13;100.00;100579.84;5065127;28;20697;-67
2023/04/30 03:42:55;;;;;;;15.23;13.73;;;;;;;10.17;100.00;100581.38;5084997;28;20184;-66
2023/04/30 03:45:21;;;;;;;16.67;14.90;;;;;;;9.97;100.00;100581.41;5072382;28;20204;-66
2023/04/30 03:47:47;;;;;;;15.07;13.57;;;;;;;10.00;100.00;100578.72;5073334;28;20203;-66
2023/04/30 03:50:13;;;;;;;14.53;13.13;;;;;;;9.99;100.00;100572.72;5062006;28;20719;-66
2023/04/30 03:52:38;;;;;;;14.97;13.57;;;;;;;10.12;100.00;100572.19;5086524;28;20267;-67
2023/04/30 03:55:04;;;;;;;16.50;14.73;;;;;;;10.01;100.00;100578.66;5071946;28;20193;-65
2023/04/30 03:57:30;;;;;;;17.13;13.73;;;;;;;10.05;100.00;100570.78;5086132;28;20924;-65
2023/04/30 03:59:55;;;;;;;16.20;14.50;;;;;;;10.07;100.00;100575.00;5072489;28;20249;-67
2023/04/30 04:02:20;;;;;;;17.77;14.93;;;;;;;10.14;100.00;100572.97;5087296;28;20703;-65
2023/04/30 04:04:46;;;;;;;14.90;13.50;;;;;;;10.07;100.00;100579.28;5084905;28;20208;-66
2023/04/30 04:07:11;;;;;;;16.30;14.67;;;;;;;10.11;100.00;100584.22;5072041;28;20562;-66
2023/04/30 04:09:37;;;;;;;14.53;13.03;;;;;;;10.26;100.00;100592.97;5074028;28;20231;-67
2023/04/30 04:12:02;;;;;;;16.70;14.70;;;;;;;10.32;100.00;100586.72;5078781;28;20306;-67
2023/04/30 04:14:27;;;;;;;16.07;14.47;;;;;;;10.15;100.00;100584.91;5063889;28;20599;-69
2023/04/30 04:16:52;;;;;;;15.27;13.83;;;;;;;10.06;100.00;100588.72;5072182;28;20608;-68
2023/04/30 04:19:18;;;;;;;16.83;15.03;;;;;;;10.01;100.00;100583.78;5072406;28;20191;-68
2023/04/30 04:21:44;;;;;;;16.20;14.57;;;;;;;10.01;100.00;100585.53;5079339;28;20223;-67
2023/04/30 04:24:09;;;;;;;16.40;14.77;;;;;;;9.98;100.00;100591.63;5090517;28;20194;-67
2023/04/30 04:26:35;;;;;;;16.30;14.63;;;;;;;10.00;100.00;100597.53;5073103;28;20181;-67
2023/04/30 04:29:02;;;;;;;16.53;14.93;;;;;;;9.96;100.00;100605.44;5070804;28;20188;-66
2023/04/30 04:31:28;;;;;;;15.40;13.80;;;;;;;10.00;100.00;100597.53;5063702;28;20219;-66
2023/04/30 04:33:57;;;;;;;17.47;15.40;;;;;;;10.06;100.00;100605.88;5076056;28;20207;-66
2023/04/30 04:36:27;;;;;;;16.70;14.63;;;;;;;10.12;100.00;100597.88;5069981;28;20701;-66
2023/04/30 04:38:56;;;;;;;16.07;14.57;;;;;;;10.23;100.00;100595.66;5071707;28;20189;-66
2023/04/30 04:41:23;;;;;;;19.37;15.07;;;;;;;10.12;100.00;100608.19;5063236;28;20224;-66
2023/04/30 04:43:48;;;;;;;15.97;14.27;;;;;;;10.11;100.00;100602.22;5067280;28;20181;-66
2023/04/30 04:46:15;;;;;;;16.00;14.50;;;;;;;10.14;100.00;100608.94;5066454;28;20227;-66
2023/04/30 04:48:40;;;;;;;16.43;14.70;;;;;;;10.23;100.00;100603.38;5064679;28;20188;-68
2023/04/30 04:51:06;;;;;;;14.83;13.43;;;;;;;10.30;100.00;100609.91;5068959;28;20739;-67
2023/04/30 04:53:31;;;;;;;15.50;14.10;;;;;;;10.21;100.00;100612.91;5078962;28;20201;-67
2023/04/30 04:55:56;;;;;;;15.70;14.03;;;;;;;10.23;100.00;100610.28;5075926;28;20175;-68
2023/04/30 04:58:21;;;;;;;15.63;14.03;;;;;;;10.26;100.00;100607.59;5079322;28;20638;-66
2023/04/30 05:00:47;;;;;;;15.17;13.40;;;;;;;10.24;100.00;100604.22;5059452;28;20219;-65
2023/04/30 05:03:13;;;;;;;16.43;12.97;;;;;;;10.18;100.00;100613.03;5060953;28;20185;-68
2023/04/30 05:05:38;;;;;;;14.20;12.70;;;;;;;10.21;100.00;100610.34;5065326;28;20652;-67
2023/04/30 05:08:03;;;;;;;13.87;12.37;;;;;;;10.24;100.00;100605.06;5063690;28;20200;-65
2023/04/30 05:10:29;;;;;;;15.50;12.30;;;;;;;10.43;100.00;100607.69;5059499;28;20263;-66
2023/04/30 05:12:54;;;;;;;13.97;12.57;;;;;;;10.41;100.00;100613.78;5075995;28;20177;-67
2023/04/30 05:15:19;;;;;;;13.83;11.80;;;;;;;10.45;100.00;100612.75;5069817;28;20232;-67
2023/04/30 05:17:45;;;;;;;16.40;12.23;;;;;;;10.34;100.00;100606.31;5070767;28;20272;-67
2023/04/30 05:20:11;;;;;;;13.20;11.73;;;;;;;10.36;100.00;100608.84;5061775;28;20261;-68
2023/04/30 05:22:37;;;;;;;12.17;10.90;;;;;;;10.39;100.00;100608.69;5085611;28;20234;-67
2023/04/30 05:25:03;;;;;;;14.03;12.00;;;;;;;10.33;100.00;100614.09;5070923;28;20184;-67
2023/04/30 05:27:28;;;;;;;14.00;11.60;;;;;;;10.44;100.00;100611.06;5070364;28;20214;-66
2023/04/30 05:29:53;;;;;;;11.73;10.63;;;;;;;10.50;100.00;100608.22;5066886;28;20219;-67
2023/04/30 05:32:18;;;;;;;13.03;10.63;;;;;;;10.61;100.00;100612.88;5056908;28;20343;-67
2023/04/30 05:34:44;;;;;;;12.13;10.93;;;;;;;10.64;100.00;100615.28;5069411;28;21060;-67
2023/04/30 05:37:11;;;;;;;10.87;9.80;;;;;;;10.66;100.00;100621.19;5071260;28;20219;-66
2023/04/30 05:39:36;;;;;;;11.13;10.03;;;;;;;10.62;100.00;100619.69;5070503;28;20612;-66
2023/04/30 05:42:02;;;;;;;11.67;10.10;;;;;;;10.77;100.00;100621.53;5076522;28;20240;-66
2023/04/30 05:44:29;;;;;;;11.93;8.50;;;;;;;10.93;100.00;100625.97;5070879;28;20208;-70
2023/04/30 05:46:54;;;;;;;10.23;9.10;;;;;;;10.95;100.00;100612.13;5061154;28;20693;-67
2023/04/30 05:49:20;;;;;;;9.80;8.80;;;;;;;11.03;100.00;100618.66;5060665;28;20190;-67
2023/04/30 05:51:45;;;;;;;10.00;8.97;;;;;;;11.11;100.00;100619.09;5056106;28;20224;-66
2023/04/30 05:54:10;;;;;;;12.47;9.57;;;;;;;10.95;100.00;100622.41;5083939;28;20239;-68
2023/04/30 05:56:35;;;;;;;10.47;8.80;;;;;;;11.06;100.00;100621.06;5090563;28;20194;-67
2023/04/30 05:59:01;;;;;;;10.43;9.03;;;;;;;11.08;100.00;100624.41;5075592;28;20195;-68
2023/04/30 06:01:28;;;;;;;10.97;9.20;;;;;;;11.06;100.00;100624.44;5078797;28;20227;-67
2023/04/30 06:03:53;;;;;;;12.13;9.87;;;;;;;10.98;100.00;100622.25;5074216;28;20188;-67
2023/04/30 06:06:19;;;;;;;11.37;8.70;;;;;;;11.20;100.00;100626.38;5062958;28;20613;-69
2023/04/30 06:08:44;;;;;;;10.90;9.27;;;;;;;11.26;100.00;100620.94;5068365;28;20220;-69
2023/04/30 06:11:14;;;;;;;10.27;8.53;;;;;;;11.05;100.00;100621.97;5069637;28;20228;-68
2023/04/30 06:13:39;;;;;;;11.07;9.03;;;;;;;11.10;100.00;100623.41;5078746;28;20192;-68
2023/04/30 06:16:06;;;;;;;9.90;8.87;;;;;;;11.10;100.00;100622.56;5069361;28;20286;-69
2023/04/30 06:18:31;;;;;;;10.67;9.17;;;;;;;11.05;100.00;100615.09;5073248;28;20177;-69
2023/04/30 06:20:56;;;;;;;10.23;9.20;;;;;;;10.97;100.00;100612.84;5055265;28;20239;-70
2023/04/30 06:23:22;;;;;;;11.03;9.83;;;;;;;10.98;100.00;100617.09;5063351;28;20189;-70
2023/04/30 06:25:47;;;;;;;10.60;9.60;;;;;;;10.93;100.00;100619.06;5059579;28;20174;-69
2023/04/30 06:28:12;;;;;;;10.93;9.50;;;;;;;11.03;100.00;100618.66;5058873;28;20196;-69
2023/04/30 06:30:37;;;;;;;10.33;9.17;;;;;;;11.14;100.00;100616.38;5062431;28;20222;-67
2023/04/30 06:33:03;;;;;;;9.67;8.87;;;;;;;11.52;100.00;100625.69;5076450;28;20200;-69
2023/04/30 06:35:29;;;;;;;9.67;8.67;;;;;;;11.92;100.00;100627.06;5059586;28;20411;-68
2023/04/30 06:37:54;;;;;;;10.80;8.30;;;;;;;12.34;100.00;100624.09;5072026;28;20180;-68
2023/04/30 06:40:19;;;;;;;9.93;8.23;;;;;;;13.02;100.00;100626.38;5047108;28;20201;-69
2023/04/30 06:42:45;;;;;;;9.37;8.47;;;;;;;13.79;98.92;100623.72;5069104;28;20266;-68
2023/04/30 06:45:13;;;;;;;9.00;7.73;;;;;;;14.51;91.93;100626.22;5057813;28;20821;-68
2023/04/30 06:47:41;;;;;;;8.90;7.43;;;;;;;15.13;88.75;100626.66;5068401;28;20172;-70
2023/04/30 06:50:07;;;;;;;8.77;7.37;;;;;;;14.98;88.98;100628.50;5075660;28;20184;-67
2023/04/30 06:52:32;;;;;;;9.87;8.33;;;;;;;15.46;87.44;100633.16;5082383;28;20222;-69
2023/04/30 06:54:58;;;;;;;8.80;7.73;;;;;;;16.00;81.46;100628.72;5072642;28;20201;-68
2023/04/30 06:57:24;;;;;;;8.63;7.67;;;;;;;16.57;75.25;100624.72;5086843;28;20184;-67
2023/04/30 06:59:49;;;;;;;9.90;7.30;;;;;;;17.20;71.75;100627.16;5073774;28;20179;-67
2023/04/30 07:02:15;;;;;;;8.30;7.50;;;;;;;17.48;66.39;100630.31;5066757;28;20303;-67
2023/04/30 07:04:40;;;;;;;7.23;6.53;;;;;;;17.21;65.50;100629.63;5064288;28;20185;-68
2023/04/30 07:07:06;;;;;;;7.77;6.30;;;;;;;15.98;71.24;100631.41;5073211;28;20192;-67
2023/04/30 07:09:31;;;;;;;7.67;6.40;;;;;;;15.98;73.99;100628.84;5073911;28;20311;-69
2023/04/30 07:11:57;;;;;;;7.70;6.90;;;;;;;16.58;69.44;100621.19;5077843;28;20223;-68
2023/04/30 07:14:23;;;;;;;6.97;5.93;;;;;;;17.32;62.93;100630.63;5071942;28;20244;-68
2023/04/30 07:16:51;;;;;;;6.80;6.00;;;;;;;16.16;69.26;100625.88;5076573;28;20228;-67
2023/04/30 07:19:16;;;;;;;6.80;5.67;;;;;;;16.68;66.29;100631.75;5089154;28;20204;-68
2023/04/30 07:21:42;;;;;;;5.87;5.37;;;;;;;16.82;63.08;100631.59;5076238;28;20635;-67
2023/04/30 07:24:07;;;;;;;6.37;5.73;;;;;;;18.08;56.26;100624.91;5076074;28;20188;-68
2023/04/30 07:26:32;;;;;;;7.47;5.27;;;;;;;17.04;62.16;100632.66;5072896;28;20552;-68
2023/04/30 07:28:58;;;;;;;7.07;5.10;;;;;;;18.31;57.37;100625.72;5073187;28;20241;-67
2023/04/30 07:31:24;;;;;;;6.17;5.07;;;;;;;17.55;54.04;100628.88;5048673;28;20217;-67
2023/04/30 07:33:50;;;;;;;5.30;4.80;;;;;;;17.24;57.50;100626.81;5070106;28;20281;-67
2023/04/30 07:36:15;;;;;;;5.93;5.30;;;;;;;17.97;54.56;100623.16;5081257;28;20655;-68
2023/04/30 07:38:41;;;;;;;4.80;4.40;;;;;;;18.20;52.58;100631.78;5078376;28;20184;-69
2023/04/30 07:41:08;;;;;;;6.73;4.93;;;;;;;18.46;51.88;100627.09;5071243;28;20701;-68
2023/04/30 07:43:33;;;;;;;4.80;4.30;;;;;;;17.84;54.52;100626.66;5091407;28;20648;-68
2023/04/30 07:45:59;;;;;;;5.07;4.53;;;;;;;18.55;51.56;100628.16;5074908;28;20176;-68
2023/04/30 07:48:24;;;;;;;4.70;4.30;;;;;;;18.01;54.00;100624.56;5072997;28;20188;-68
2023/04/30 07:50:49;;;;;;;4.93;4.43;;;;;;;18.11;50.62;100619.47;5068967;28;20216;-66
2023/04/30 07:53:14;;;;;;;4.90;4.40;;;;;;;18.57;50.99;100620.19;5082512;28;20685;-66
2023/04/30 07:55:40;;;;;;;5.37;4.47;;;;;;;19.72;47.30;100627.34;5076249;28;20188;-67
2023/04/30 07:58:05;;;;;;;5.07;4.17;;;;;;;19.70;46.84;100624.03;5082362;28;20177;-66
2023/04/30 08:00:31;;;;;;;6.77;4.50;;;;;;;19.56;46.12;100630.41;5064504;28;20242;-68
2023/04/30 08:02:57;;;;;;;4.60;4.13;;;;;;;20.19;44.70;100629.47;5091570;28;20274;-67
2023/04/30 08:05:22;;;;;;;4.73;3.93;;;;;;;21.09;42.10;100630.28;5073437;28;20277;-68
2023/04/30 08:07:48;;;;;;;4.00;3.60;;;;;;;21.95;39.98;100639.81;5072731;28;20209;-67
2023/04/30 08:10:13;;;;;;;4.77;4.10;;;;;;;21.07;40.88;100632.19;5063294;28;20228;-67
2023/04/30 08:12:38;;;;;;;3.97;3.63;;;;;;;20.19;42.43;100634.69;5071249;28;20250;-67
2023/04/30 08:15:05;;;;;;;8.53;4.77;;;;;;;19.44;44.59;100634.91;5071746;28;20690;-67
2023/04/30 08:17:33;;;;;;;4.30;3.80;;;;;;;20.11;44.61;100627.53;5071091;28;20211;-68
2023/04/30 08:20:03;;;;;;;4.93;3.87;;;;;;;20.52;42.34;100630.91;5072257;28;20196;-68
2023/04/30 08:22:28;;;;;;;5.43;3.83;;;;;;;19.70;43.63;100634.47;5061300;28;20239;-67
2023/04/30 08:24:54;;;;;;;4.70;3.63;;;;;;;20.05;43.37;100631.50;5071195;28;20263;-68
2023/04/30 08:27:20;;;;;;;3.50;3.20;;;;;;;19.57;45.08;100626.88;5070843;28;20544;-67
2023/04/30 08:29:45;;;;;;;4.60;3.60;;;;;;;20.04;43.56;100631.63;5071991;28;20191;-70
2023/04/30 08:32:11;;;;;;;4.10;3.17;;;;;;;20.04;41.52;100622.00;5077568;28;20224;-69
2023/04/30 08:34:36;;;;;;;3.73;3.43;;;;;;;19.05;43.04;100619.81;5082826;28;20231;-68
2023/04/30 08:37:01;;;;;;;4.17;3.77;;;;;;;19.99;42.82;100625.03;5080705;28;20168;-68
2023/04/30 08:39:27;;;;;;;4.63;3.40;;;;;;;20.50;41.41;100627.59;5081030;28;20188;-68
2023/04/30 08:41:59;;;;;;;3.60;3.30;;;;;;;20.15;41.63;100631.53;5087326;28;20268;-69
2023/04/30 08:44:26;;;;;;;5.30;3.60;;;;;;;20.51;41.34;100620.59;5072060;28;20208;-67
2023/04/30 08:46:57;;;;;;;3.70;3.40;;;;;;;19.50;41.70;100622.16;5070246;28;20208;-68
2023/04/30 08:49:23;;;;;;;3.07;2.73;;;;;;;20.32;41.81;100628.25;5080834;28;20178;-69
2023/04/30 08:51:49;;;;;;;3.57;3.27;;;;;;;19.01;43.29;100631.44;5043458;28;20688;-68
2023/04/30 08:54:16;;;;;;;3.60;3.30;;;;;;;19.77;42.14;100631.22;5070889;28;20246;-68
2023/04/30 08:56:41;;;;;;;3.73;3.43;;;;;;;18.94;43.54;100633.75;5083867;28;20203;-69
2023/04/30 08:59:06;;;;;;;3.77;3.47;;;;;;;18.84;43.20;100628.41;5072549;28;20616;-68
2023/04/30 09:01:33;;;;;;;4.37;3.63;;;;;;;19.48;42.73;100633.69;5073187;28;20235;-68
2023/04/30 09:03:58;;;;;;;3.40;3.10;;;;;;;19.50;41.78;100632.59;5070138;28;20177;-68
2023/04/30 09:06:23;;;;;;;5.03;3.10;;;;;;;20.09;41.18;100632.06;5071323;28;20743;-68
2023/04/30 09:08:50;;;;;;;5.00;3.07;;;;;;;21.44;40.28;100619.16;5071419;28;20221;-67
2023/04/30 09:11:29;;;;;;;3.60;2.83;;;;;;;22.36;37.03;100621.97;5063271;28;20764;-68
2023/04/30 09:14:00;;;;;;;4.50;2.73;;;;;;;22.14;36.02;100630.22;5069852;28;20296;-69
2023/04/30 09:16:43;;;;;;;2.90;2.70;;;;;;;21.38;37.23;100632.00;5069619;28;20180;-68
2023/04/30 09:19:21;;;;;;;3.77;3.20;;;;;;;21.36;37.41;100634.78;5070366;28;20632;-68
2023/04/30 09:21:46;;;;;;;3.33;2.90;;;;;;;20.40;38.57;100618.94;5062940;28;20281;-69
2023/04/30 09:24:11;;;;;;;3.67;3.30;;;;;;;19.98;39.18;100630.38;5073339;28;20213;-68
2023/04/30 09:26:37;;;;;;;3.77;2.80;;;;;;;20.08;39.81;100631.25;5070998;28;20516;-68
2023/04/30 09:29:06;;;;;;;3.67;3.37;;;;;;;19.86;39.85;100618.38;5070207;28;20219;-68
2023/04/30 09:31:34;;;;;;;3.90;3.10;;;;;;;20.25;40.42;100618.50;5059494;28;20698;-68
2023/04/30 09:34:00;;;;;;;2.83;2.63;;;;;;;22.37;37.66;100609.69;5065915;28;20223;-69
2023/04/30 09:36:26;;;;;;;3.10;2.58;;;;;;;23.75;32.78;100607.44;5085085;28;20631;-67
2023/04/30 09:38:52;;;;;;;5.88;2.53;;;;;;;21.87;35.87;100622.22;5075283;28;20177;-69
2023/04/30 09:41:26;;;;;;;2.50;2.30;;;;;;;20.37;37.46;100606.97;5087979;28;20265;-67
2023/04/30 09:43:52;;;;;;;3.23;2.73;;;;;;;20.84;37.59;100605.50;5076488;28;20218;-71
2023/04/30 09:46:20;;;;;;;5.10;2.73;;;;;;;20.61;37.62;100596.09;5069808;28;20181;-69
2023/04/30 09:48:45;;;;;;;2.83;2.27;;;;;;;21.94;36.32;100596.28;5065408;28;20321;-68
2023/04/30 09:51:10;;;;;;;2.70;2.10;;;;;;;20.29;37.99;100606.81;5073288;28;20642;-68
2023/04/30 09:53:41;;;;;;;2.93;2.63;;;;;;;21.03;37.23;100596.81;5081903;28;20203;-70
2023/04/30 09:56:07;;;;;;;3.13;2.33;;;;;;;20.95;36.37;100603.56;5081945;28;20259;-68
2023/04/30 09:58:39;;;;;;;5.03;2.47;;;;;;;21.11;35.93;100608.25;5080816;28;20267;-69
2023/04/30 10:01:07;;;;;;;2.37;1.90;;;;;;;21.55;35.21;100604.28;5072770;28;20227;-68
2023/04/30 10:03:33;;;;;;;2.47;2.23;;;;;;;20.74;36.13;100598.50;5073012;28;20173;-69
2023/04/30 10:05:59;;;;;;;1.93;1.80;;;;;;;20.75;36.31;100594.94;5087784;28;20175;-68
2023/04/30 10:08:37;;;;;;;3.23;1.63;;;;;;;20.47;36.01;100592.13;5069740;28;20595;-68
2023/04/30 10:11:05;;;;;;;2.20;2.00;;;;;;;21.28;35.13;100592.78;5062234;28;21016;-68
2023/04/30 10:13:47;;;;;;;2.73;2.33;;;;;;;21.63;35.09;100587.88;5081734;28;20525;-69
2023/04/30 10:16:34;;;;;;;2.80;2.03;;;;;;;22.60;33.54;100577.81;5072366;28;20185;-68
2023/04/30 10:19:05;;;;;;;2.40;1.80;;;;;;;22.10;34.40;100579.91;5088160;28;20191;-68
2023/04/30 10:21:31;;;;;;;2.00;1.90;;;;;;;21.06;35.33;100579.06;5066137;28;20600;-69
2023/04/30 10:23:56;;;;;;;2.60;2.40;;;;;;;20.76;36.34;100570.44;5077912;28;20184;-68
2023/04/30 10:26:23;;;;;;;3.50;2.00;;;;;;;21.37;35.16;100572.78;5073710;28;20187;-69
2023/04/30 10:28:49;;;;;;;2.90;2.10;;;;;;;21.45;34.54;100560.63;5071012;28;20189;-69
2023/04/30 10:31:18;;;;;;;2.87;2.07;;;;;;;20.72;34.39;100563.81;5062587;28;20354;-68
2023/04/30 10:33:52;;;;;;;2.40;1.77;;;;;;;21.25;33.80;100559.88;5074995;28;20204;-68
2023/04/30 10:36:27;;;;;;;2.70;1.93;;;;;;;20.51;34.64;100548.25;5073879;28;20164;-68
2023/04/30 10:38:52;;;;;;;1.70;1.60;;;;;;;19.52;38.14;100546.38;5072618;28;20179;-69
2023/04/30 10:41:19;;;;;;;4.67;2.37;;;;;;;18.58;39.50;100569.75;5073387;28;20223;-67
2023/04/30 10:43:46;;;;;;;3.43;2.17;;;;;;;18.14;42.28;100541.13;5069495;28;20236;-67
2023/04/30 10:46:20;;;;;;;2.47;2.27;;;;;;;17.67;43.27;100542.09;5064829;28;20273;-69
2023/04/30 10:48:46;;;;;;;2.60;2.03;;;;;;;17.43;44.83;100537.03;5073298;28;20321;-68
2023/04/30 10:51:11;;;;;;;3.50;1.80;;;;;;;17.53;44.83;100539.75;5072824;28;20607;-70
2023/04/30 10:53:39;;;;;;;2.20;1.90;;;;;;;17.77;44.99;100533.59;5067701;28;20204;-68
2023/04/30 10:56:10;;;;;;;3.03;2.13;;;;;;;17.69;44.26;100537.63;5080311;28;20176;-67
2023/04/30 10:58:39;;;;;;;2.27;2.10;;;;;;;17.17;45.94;100539.84;5077893;28;20695;-68
2023/04/30 11:01:10;;;;;;;2.53;2.00;;;;;;;17.03;46.05;100535.69;5061083;28;20254;-66
2023/04/30 11:03:37;;;;;;;2.53;2.10;;;;;;;17.23;45.92;100523.78;5089242;28;20189;-68
2023/04/30 11:06:14;;;;;;;2.50;1.93;;;;;;;17.38;46.04;100523.56;5071636;28;20203;-70
2023/04/30 11:08:44;;;;;;;2.57;2.37;;;;;;;17.25;44.90;100524.50;5073441;28;20208;-67
2023/04/30 11:11:10;;;;;;;2.10;1.60;;;;;;;16.94;47.11;100525.94;5085509;28;20218;-68